Bow Heron — DYTN — position and weather

sailwx.info

Track history (hours):
 
Tides and Currents Weather Stations Pressure Air Temp Water Temp Dewpoint Dewpoint Depression Visibility Wind Speed Wind Dir Waves Ship Positions

Bow Heron

Last reported at 2017-Nov-08 06:43 UTC. Time now 2017-Dec-17 00:50 UTC.
Position S 24°45' W 046°39'.
Warning: this ship's position is 38 days out of date.

Length 174 m; draft 6.6 m.

Type: Ship (hazmat cat C). MMSI: 548779000.

Date/timePositionNaut miles runAvg speedWind from/ knotsBaromVisibWave heightAir tempDewpointWater temp
2017-Nov-08 06:43S 24°45' W 046°39'314.8
2017-Nov-08 06:30S 24°42' W 046°38'714.7
2017-Nov-08 06:00S 24°35' W 046°35'714.5
2017-Nov-08 05:30S 24°28' W 046°32'714.5
2017-Nov-08 05:00S 24°21' W 046°29'713.8
2017-Nov-08 04:30S 24°15' W 046°26'4 8.5
2017-Nov-08 04:00S 24°11' W 046°25'6 7.4
2017-Nov-08 03:15S 24°06' W 046°23'311.9
2017-Nov-08 03:01S 24°03' W 046°21'4 8.7
2017-Nov-08 02:30S 23°60' W 046°19'7 0.1
2017-Nov-06 02:29S 24°06' W 046°21'0 0.0
2017-Nov-06 01:59S 24°06' W 046°21'0 0.0
2017-Nov-06 01:29S 24°06' W 046°21'0 0.0
2017-Nov-06 00:53S 24°06' W 046°21'0 0.0
2017-Nov-06 00:29S 24°06' W 046°21'0 0.0
2017-Nov-05 23:59S 24°06' W 046°21'0 0.0
2017-Nov-05 23:29S 24°06' W 046°21'0 0.0
2017-Nov-05 22:59S 24°06' W 046°21'0 0.0
2017-Nov-05 22:29S 24°06' W 046°21'0 0.0
2017-Nov-05 21:59S 24°06' W 046°21'0 0.0
2017-Nov-05 21:29S 24°06' W 046°21'0 0.0
2017-Nov-05 20:59S 24°06' W 046°21'0 0.0
2017-Nov-05 20:23S 24°06' W 046°21'0 0.1
2017-Nov-05 19:59S 24°06' W 046°21'0 0.0
2017-Nov-05 19:29S 24°06' W 046°21'0 0.0
2017-Nov-05 18:59S 24°06' W 046°21'0 0.0
2017-Nov-05 18:29S 24°06' W 046°21'0 0.0
2017-Nov-05 17:59S 24°06' W 046°21'0 0.0
2017-Nov-05 17:29S 24°06' W 046°21'0 0.0
2017-Nov-05 16:59S 24°06' W 046°21'0 0.0
2017-Nov-05 16:29S 24°06' W 046°21'0 0.0
2017-Nov-05 15:59S 24°06' W 046°21'0 0.0
2017-Nov-05 15:29S 24°06' W 046°21'0 0.0
2017-Nov-05 14:59S 24°06' W 046°21'0 0.0
2017-Nov-05 14:29S 24°06' W 046°21'0 0.0
2017-Nov-04 20:41S 24°06' W 046°21'0 0.1
2017-Nov-04 20:29S 24°06' W 046°21'0 0.0
2017-Nov-04 19:59S 24°06' W 046°21'0 0.0
2017-Nov-04 19:17S 24°06' W 046°21'0 0.0
2017-Nov-04 18:59S 24°06' W 046°21'0 0.0
2017-Nov-04 18:23S 24°06' W 046°21'0 0.3
2017-Nov-04 18:01S 24°06' W 046°21'2 3.7
2017-Nov-04 17:31S 24°05' W 046°22'5 9.9
2017-Nov-04 17:01S 24°00' W 046°20'3 6.2
2017-Nov-04 16:31S 23°58' W 046°18'0 0.0
2017-Nov-03 07:58S 23°58' W 046°18'3 5.6
2017-Nov-03 07:30S 23°60' W 046°20'4 8.1
2017-Nov-03 07:00S 24°03' W 046°21'3 6.7
2017-Nov-03 06:30S 24°07' W 046°22'510.4
2017-Nov-03 06:00S 24°11' W 046°20'2 4.4
2017-Nov-03 05:30S 24°13' W 046°19'0 0.1
2017-Nov-03 05:00S 24°13' W 046°19'0 0.0
2017-Nov-03 04:27S 24°13' W 046°19'0 0.0
2017-Nov-03 03:57S 24°13' W 046°19'0 0.0
2017-Nov-03 03:30S 24°13' W 046°19'0 0.0
2017-Nov-03 02:57S 24°13' W 046°19'0 0.0
2017-Nov-03 02:30S 24°13' W 046°19'0 0.0
2017-Nov-03 01:57S 24°13' W 046°19'0 0.0
2017-Nov-03 01:30S 24°13' W 046°19'0 0.0
2017-Nov-03 01:00S 24°13' W 046°19'0 0.0
2017-Nov-03 00:30S 24°13' W 046°19'0 0.0
2017-Nov-03 00:00S 24°13' W 046°19'0 0.0
2017-Nov-02 23:30S 24°13' W 046°19'0 0.0
2017-Nov-02 22:57S 24°13' W 046°19'0 0.0
2017-Nov-02 22:09S 24°13' W 046°19'0 0.0
2017-Nov-02 21:51S 24°13' W 046°19'0 0.0
2017-Nov-02 21:21S 24°13' W 046°19'0 0.0
2017-Nov-02 19:27S 24°13' W 046°19'0 0.0
2017-Nov-02 18:45S 24°13' W 046°19'0 0.0
2017-Nov-02 18:27S 24°13' W 046°19'0 0.0
2017-Nov-02 16:09S 24°13' W 046°19'0 0.0
2017-Nov-02 15:57S 24°13' W 046°19'0 0.0
2017-Nov-02 14:57S 24°13' W 046°19'0 0.0
2017-Nov-02 13:45S 24°13' W 046°19'0 0.0
2017-Nov-02 13:27S 24°13' W 046°19'0 0.0
2017-Nov-02 13:00S 24°13' W 046°19'0 0.0
2017-Nov-02 12:27S 24°13' W 046°19'0 0.0
2017-Nov-02 11:54S 24°13' W 046°19'0 0.0
2017-Nov-02 11:21S 24°13' W 046°19'0 0.0
2017-Nov-02 10:57S 24°13' W 046°19'0 0.0
2017-Nov-02 10:21S 24°13' W 046°19'0 0.1
2017-Nov-02 09:57S 24°13' W 046°19'0 0.0
2017-Nov-02 09:27S 24°13' W 046°19'0 0.1
2017-Nov-02 08:57S 24°13' W 046°19'0 0.1
2017-Nov-02 08:30S 24°13' W 046°19'0 0.0
2017-Nov-02 07:57S 24°13' W 046°19'0 0.2
2017-Nov-02 07:27S 24°13' W 046°18'0 0.0
2017-Nov-02 06:57S 24°13' W 046°18'0 0.0
2017-Nov-02 06:24S 24°13' W 046°18'0 0.0
2017-Nov-02 05:57S 24°13' W 046°19'0 0.0
2017-Nov-02 05:27S 24°13' W 046°19'0 0.0
2017-Nov-02 04:57S 24°13' W 046°19'0 0.0
2017-Nov-02 04:27S 24°13' W 046°19'0 0.0
2017-Nov-02 04:00S 24°13' W 046°19'0 0.0
2017-Nov-02 03:27S 24°13' W 046°19'0 0.0
2017-Nov-02 03:00S 24°13' W 046°19'0 0.0
2017-Nov-02 02:30S 24°13' W 046°19'0 0.1
2017-Nov-02 01:57S 24°13' W 046°18'0 0.0
2017-Nov-02 01:27S 24°13' W 046°18'0 0.0
2017-Nov-02 00:57S 24°13' W 046°18'0 0.0
2017-Nov-02 00:30S 24°13' W 046°18'0 0.0
2017-Nov-02 00:00S 24°13' W 046°18'0 0.0
2017-Nov-01 23:27S 24°13' W 046°18'0 0.1
2017-Nov-01 22:57S 24°13' W 046°18'0 0.0
2017-Nov-01 22:30S 24°13' W 046°18'0 0.0
2017-Nov-01 22:00S 24°13' W 046°18'0 0.0
2017-Nov-01 21:27S 24°13' W 046°18'0 0.0
2017-Nov-01 21:00S 24°13' W 046°18'0 0.0
2017-Nov-01 20:27S 24°13' W 046°18'0 0.0
2017-Nov-01 19:57S 24°13' W 046°18'0 0.0
2017-Nov-01 19:27S 24°13' W 046°18'0 0.0
2017-Nov-01 19:00S 24°13' W 046°18'0 0.0
2017-Nov-01 18:27S 24°13' W 046°18'0 0.0
2017-Nov-01 01:57S 24°13' W 046°18'0 0.0
2017-Nov-01 01:27S 24°13' W 046°18'0 0.0
2017-Nov-01 00:57S 24°13' W 046°18'0 0.0
2017-Nov-01 00:27S 24°13' W 046°18'0 0.0
2017-Oct-31 23:57S 24°13' W 046°18'0 0.0
2017-Oct-31 23:27S 24°13' W 046°18'0 0.0
2017-Oct-31 22:57S 24°13' W 046°18'0 0.0
2017-Oct-31 22:27S 24°13' W 046°18'0 0.0
2017-Oct-31 21:57S 24°13' W 046°18'0 0.0
2017-Oct-31 21:21S 24°13' W 046°18'0 0.0
2017-Oct-31 20:57S 24°13' W 046°18'0 0.0
2017-Oct-31 20:24S 24°13' W 046°18'0 0.0
2017-Oct-31 19:57S 24°13' W 046°18'0 0.0
2017-Oct-31 19:30S 24°13' W 046°18'0 0.0
2017-Oct-31 18:57S 24°13' W 046°18'0 0.0
2017-Oct-31 18:30S 24°13' W 046°18'0 0.0
2017-Oct-31 17:51S 24°13' W 046°18'0 0.0
2017-Oct-31 17:30S 24°13' W 046°18'0 0.0
2017-Oct-31 16:57S 24°13' W 046°18'0 0.0
2017-Oct-31 16:27S 24°13' W 046°18'0 0.0
2017-Oct-31 15:57S 24°13' W 046°18'0 0.0
2017-Oct-31 15:21S 24°13' W 046°18'0 0.0
2017-Oct-31 14:57S 24°13' W 046°18'0 0.0
2017-Oct-31 14:30S 24°13' W 046°18'0 0.0
2017-Oct-31 13:57S 24°13' W 046°18'0 0.0
2017-Oct-31 13:30S 24°13' W 046°18'0 0.0
2017-Oct-31 12:57S 24°13' W 046°18'0 0.0
2017-Oct-31 12:27S 24°13' W 046°18'0 0.0
2017-Oct-31 11:57S 24°13' W 046°18'0 0.1
2017-Oct-31 11:27S 24°13' W 046°18'0 0.0
2017-Oct-31 10:57S 24°13' W 046°18'0 0.0
2017-Oct-31 10:27S 24°13' W 046°18'0 0.0
2017-Oct-31 10:00S 24°13' W 046°18'0 0.0
2017-Oct-31 09:21S 24°13' W 046°18'0 0.2
2017-Oct-31 08:57S 24°13' W 046°18'0 0.2
2017-Oct-31 08:30S 24°13' W 046°18'0 0.1
2017-Oct-31 08:00S 24°13' W 046°19'0 0.0
2017-Oct-31 07:15S 24°13' W 046°19'0 0.0
2017-Oct-31 06:57S 24°13' W 046°19'0 0.0
2017-Oct-31 06:27S 24°13' W 046°19'0 0.0
2017-Oct-31 05:57S 24°13' W 046°19'0 0.1
2017-Oct-31 05:27S 24°13' W 046°19'0 0.0
2017-Oct-31 04:57S 24°13' W 046°19'0 0.0
2017-Oct-31 04:24S 24°13' W 046°19'0 0.0
2017-Oct-31 03:57S 24°13' W 046°19'0 0.0
2017-Oct-31 03:27S 24°13' W 046°19'0 0.0
2017-Oct-31 02:54S 24°13' W 046°19'0 0.0
2017-Oct-31 02:27S 24°13' W 046°19'0 0.0
2017-Oct-31 01:57S 24°13' W 046°19'0 0.0
2017-Oct-31 01:27S 24°13' W 046°19'0 0.0
2017-Oct-31 00:45S 24°13' W 046°19'0 0.0
2017-Oct-31 00:15S 24°13' W 046°19'0 0.0
2017-Oct-30 23:51S 24°13' W 046°19'0 0.0
2017-Oct-30 23:27S 24°13' W 046°19'0 0.0
2017-Oct-30 22:57S 24°13' W 046°19'0 0.0
2017-Oct-30 22:27S 24°13' W 046°19'0 0.0
2017-Oct-30 21:48S 24°13' W 046°19'0 0.0
2017-Oct-30 21:06S 24°13' W 046°19'0 0.1
2017-Oct-30 21:00S 24°13' W 046°19'0 0.0
2017-Oct-30 20:24S 24°13' W 046°19'0 0.0
2017-Oct-30 19:57S 24°13' W 046°19'0 0.0
2017-Oct-30 19:27S 24°13' W 046°19'0 0.1
2017-Oct-30 18:57S 24°13' W 046°19'0 0.0
2017-Oct-30 18:27S 24°13' W 046°19'0 0.1
2017-Oct-30 17:57S 24°13' W 046°19'0 0.0
2017-Oct-30 17:15S 24°13' W 046°19'0 0.2
2017-Oct-30 16:57S 24°13' W 046°19'0 0.0
2017-Oct-30 16:27S 24°13' W 046°19'0 0.1
2017-Oct-30 15:57S 24°13' W 046°19'0 0.0
2017-Oct-30 15:27S 24°13' W 046°19'0 0.0
2017-Oct-30 14:57S 24°13' W 046°19'0 0.0
2017-Oct-30 14:27S 24°13' W 046°19'0 0.0
2017-Oct-30 13:21S 24°13' W 046°19'0 0.1
2017-Oct-30 12:57S 24°13' W 046°19'0 0.0
2017-Oct-30 12:27S 24°13' W 046°19'0 0.0
2017-Oct-30 11:57S 24°13' W 046°19'0 0.0
2017-Oct-30 11:27S 24°13' W 046°19'0 0.0
2017-Oct-30 10:57S 24°13' W 046°19'0 0.0
2017-Oct-30 10:27S 24°13' W 046°19'0 0.0
2017-Oct-30 09:48S 24°13' W 046°19'0 0.0
2017-Oct-30 09:15S 24°13' W 046°19'0 0.0
2017-Oct-30 08:45S 24°13' W 046°19'0 0.1
2017-Oct-30 08:27S 24°13' W 046°19'0 0.1
2017-Oct-30 07:51S 24°13' W 046°19'0 0.0
2017-Oct-30 07:18S 24°13' W 046°19'0 0.1
2017-Oct-30 07:00S 24°13' W 046°19'0 0.1
2017-Oct-30 06:30S 24°13' W 046°19'0 0.0
2017-Oct-30 04:57S 24°13' W 046°19'0 0.0
2017-Oct-30 04:30S 24°13' W 046°19'0 0.0
2017-Oct-30 03:57S 24°13' W 046°19'0 0.0
2017-Oct-30 03:21S 24°13' W 046°19'0 0.0
2017-Oct-30 03:00S 24°13' W 046°19'0 0.1
2017-Oct-30 02:27S 24°13' W 046°19'0 0.0
2017-Oct-30 01:57S 24°13' W 046°19'0 0.0
2017-Oct-30 01:24S 24°13' W 046°19'0 0.0
2017-Oct-30 00:57S 24°13' W 046°19'0 0.0
2017-Oct-30 00:21S 24°13' W 046°19'0 0.0
2017-Oct-29 23:51S 24°13' W 046°19'0 0.0
2017-Oct-29 23:21S 24°13' W 046°19'0 0.1
2017-Oct-29 22:57S 24°13' W 046°19'0 0.1
2017-Oct-29 22:30S 24°13' W 046°18'0 0.1
2017-Oct-29 21:57S 24°13' W 046°18'0 0.0
2017-Oct-29 21:27S 24°13' W 046°18'0 0.0
2017-Oct-29 20:57S 24°13' W 046°18'0 0.0
2017-Oct-29 20:27S 24°13' W 046°18'1 2.6
2017-Oct-29 20:00S 24°13' W 046°20'5 9.3
2017-Oct-29 19:30S 24°17' W 046°23'714.9
2017-Oct-29 19:00S 24°24' W 046°19'815.2
2017-Oct-29 18:30S 24°29' W 046°13'613.0
2017-Oct-29 18:00S 24°31' W 046°06'714.5
2017-Oct-29 17:30S 24°29' W 045°58'814.6
2017-Oct-29 16:59S 24°28' W 045°50'714.6
2017-Oct-29 16:30S 24°27' W 045°42'714.3
2017-Oct-29 16:00S 24°25' W 045°35'  
Track history (hours):
 
Tides and Currents Weather Stations Pressure Air Temp Water Temp Dewpoint Dewpoint Depression Visibility Wind Speed Wind Dir Waves Ship Positions

Bow Heron

Last reported at 2017-Nov-08 06:43 UTC. Time now 2017-Dec-17 00:50 UTC.
Position S 24°45' W 046°39'.
Warning: this ship's position is 38 days out of date.

Length 174 m; draft 6.6 m.

Type: Ship (hazmat cat C). MMSI: 548779000.

Date/timePositionNaut miles runAvg speedWind from/ knotsBaromVisibWave heightAir tempDewpointWater temp
2017-Nov-08 06:43S 24°45' W 046°39'314.8
2017-Nov-08 06:30S 24°42' W 046°38'714.7
2017-Nov-08 06:00S 24°35' W 046°35'714.5
2017-Nov-08 05:30S 24°28' W 046°32'714.5
2017-Nov-08 05:00S 24°21' W 046°29'713.8
2017-Nov-08 04:30S 24°15' W 046°26'4 8.5
2017-Nov-08 04:00S 24°11' W 046°25'6 7.4
2017-Nov-08 03:15S 24°06' W 046°23'311.9
2017-Nov-08 03:01S 24°03' W 046°21'4 8.7
2017-Nov-08 02:30S 23°60' W 046°19'7 0.1
2017-Nov-06 02:29S 24°06' W 046°21'0 0.0
2017-Nov-06 01:59S 24°06' W 046°21'0 0.0
2017-Nov-06 01:29S 24°06' W 046°21'0 0.0
2017-Nov-06 00:53S 24°06' W 046°21'0 0.0
2017-Nov-06 00:29S 24°06' W 046°21'0 0.0
2017-Nov-05 23:59S 24°06' W 046°21'0 0.0
2017-Nov-05 23:29S 24°06' W 046°21'0 0.0
2017-Nov-05 22:59S 24°06' W 046°21'0 0.0
2017-Nov-05 22:29S 24°06' W 046°21'0 0.0
2017-Nov-05 21:59S 24°06' W 046°21'0 0.0
2017-Nov-05 21:29S 24°06' W 046°21'0 0.0
2017-Nov-05 20:59S 24°06' W 046°21'0 0.0
2017-Nov-05 20:23S 24°06' W 046°21'0 0.1
2017-Nov-05 19:59S 24°06' W 046°21'0 0.0
2017-Nov-05 19:29S 24°06' W 046°21'0 0.0
2017-Nov-05 18:59S 24°06' W 046°21'0 0.0
2017-Nov-05 18:29S 24°06' W 046°21'0 0.0
2017-Nov-05 17:59S 24°06' W 046°21'0 0.0
2017-Nov-05 17:29S 24°06' W 046°21'0 0.0
2017-Nov-05 16:59S 24°06' W 046°21'0 0.0
2017-Nov-05 16:29S 24°06' W 046°21'0 0.0
2017-Nov-05 15:59S 24°06' W 046°21'0 0.0
2017-Nov-05 15:29S 24°06' W 046°21'0 0.0
2017-Nov-05 14:59S 24°06' W 046°21'0 0.0
2017-Nov-05 14:29S 24°06' W 046°21'0 0.0
2017-Nov-04 20:41S 24°06' W 046°21'0 0.1
2017-Nov-04 20:29S 24°06' W 046°21'0 0.0
2017-Nov-04 19:59S 24°06' W 046°21'0 0.0
2017-Nov-04 19:17S 24°06' W 046°21'0 0.0
2017-Nov-04 18:59S 24°06' W 046°21'0 0.0
2017-Nov-04 18:23S 24°06' W 046°21'0 0.3
2017-Nov-04 18:01S 24°06' W 046°21'2 3.7
2017-Nov-04 17:31S 24°05' W 046°22'5 9.9
2017-Nov-04 17:01S 24°00' W 046°20'3 6.2
2017-Nov-04 16:31S 23°58' W 046°18'0 0.0
2017-Nov-03 07:58S 23°58' W 046°18'3 5.6
2017-Nov-03 07:30S 23°60' W 046°20'4 8.1
2017-Nov-03 07:00S 24°03' W 046°21'3 6.7
2017-Nov-03 06:30S 24°07' W 046°22'510.4
2017-Nov-03 06:00S 24°11' W 046°20'2 4.4
2017-Nov-03 05:30S 24°13' W 046°19'0 0.1
2017-Nov-03 05:00S 24°13' W 046°19'0 0.0
2017-Nov-03 04:27S 24°13' W 046°19'0 0.0
2017-Nov-03 03:57S 24°13' W 046°19'0 0.0
2017-Nov-03 03:30S 24°13' W 046°19'0 0.0
2017-Nov-03 02:57S 24°13' W 046°19'0 0.0
2017-Nov-03 02:30S 24°13' W 046°19'0 0.0
2017-Nov-03 01:57S 24°13' W 046°19'0 0.0
2017-Nov-03 01:30S 24°13' W 046°19'0 0.0
2017-Nov-03 01:00S 24°13' W 046°19'0 0.0
2017-Nov-03 00:30S 24°13' W 046°19'0 0.0
2017-Nov-03 00:00S 24°13' W 046°19'0 0.0
2017-Nov-02 23:30S 24°13' W 046°19'0 0.0
2017-Nov-02 22:57S 24°13' W 046°19'0 0.0
2017-Nov-02 22:09S 24°13' W 046°19'0 0.0
2017-Nov-02 21:51S 24°13' W 046°19'0 0.0
2017-Nov-02 21:21S 24°13' W 046°19'0 0.0
2017-Nov-02 19:27S 24°13' W 046°19'0 0.0
2017-Nov-02 18:45S 24°13' W 046°19'0 0.0
2017-Nov-02 18:27S 24°13' W 046°19'0 0.0
2017-Nov-02 16:09S 24°13' W 046°19'0 0.0
2017-Nov-02 15:57S 24°13' W 046°19'0 0.0
2017-Nov-02 14:57S 24°13' W 046°19'0 0.0
2017-Nov-02 13:45S 24°13' W 046°19'0 0.0
2017-Nov-02 13:27S 24°13' W 046°19'0 0.0
2017-Nov-02 13:00S 24°13' W 046°19'0 0.0
2017-Nov-02 12:27S 24°13' W 046°19'0 0.0
2017-Nov-02 11:54S 24°13' W 046°19'0 0.0
2017-Nov-02 11:21S 24°13' W 046°19'0 0.0
2017-Nov-02 10:57S 24°13' W 046°19'0 0.0
2017-Nov-02 10:21S 24°13' W 046°19'0 0.1
2017-Nov-02 09:57S 24°13' W 046°19'0 0.0
2017-Nov-02 09:27S 24°13' W 046°19'0 0.1
2017-Nov-02 08:57S 24°13' W 046°19'0 0.1
2017-Nov-02 08:30S 24°13' W 046°19'0 0.0
2017-Nov-02 07:57S 24°13' W 046°19'0 0.2
2017-Nov-02 07:27S 24°13' W 046°18'0 0.0
2017-Nov-02 06:57S 24°13' W 046°18'0 0.0
2017-Nov-02 06:24S 24°13' W 046°18'0 0.0
2017-Nov-02 05:57S 24°13' W 046°19'0 0.0
2017-Nov-02 05:27S 24°13' W 046°19'0 0.0
2017-Nov-02 04:57S 24°13' W 046°19'0 0.0
2017-Nov-02 04:27S 24°13' W 046°19'0 0.0
2017-Nov-02 04:00S 24°13' W 046°19'0 0.0
2017-Nov-02 03:27S 24°13' W 046°19'0 0.0
2017-Nov-02 03:00S 24°13' W 046°19'0 0.0
2017-Nov-02 02:30S 24°13' W 046°19'0 0.1
2017-Nov-02 01:57S 24°13' W 046°18'0 0.0
2017-Nov-02 01:27S 24°13' W 046°18'0 0.0
2017-Nov-02 00:57S 24°13' W 046°18'0 0.0
2017-Nov-02 00:30S 24°13' W 046°18'0 0.0
2017-Nov-02 00:00S 24°13' W 046°18'0 0.0
2017-Nov-01 23:27S 24°13' W 046°18'0 0.1
2017-Nov-01 22:57S 24°13' W 046°18'0 0.0
2017-Nov-01 22:30S 24°13' W 046°18'0 0.0
2017-Nov-01 22:00S 24°13' W 046°18'0 0.0
2017-Nov-01 21:27S 24°13' W 046°18'0 0.0
2017-Nov-01 21:00S 24°13' W 046°18'0 0.0
2017-Nov-01 20:27S 24°13' W 046°18'0 0.0
2017-Nov-01 19:57S 24°13' W 046°18'0 0.0
2017-Nov-01 19:27S 24°13' W 046°18'0 0.0
2017-Nov-01 19:00S 24°13' W 046°18'0 0.0
2017-Nov-01 18:27S 24°13' W 046°18'0 0.0
2017-Nov-01 01:57S 24°13' W 046°18'0 0.0
2017-Nov-01 01:27S 24°13' W 046°18'0 0.0
2017-Nov-01 00:57S 24°13' W 046°18'0 0.0
2017-Nov-01 00:27S 24°13' W 046°18'0 0.0
2017-Oct-31 23:57S 24°13' W 046°18'0 0.0
2017-Oct-31 23:27S 24°13' W 046°18'0 0.0
2017-Oct-31 22:57S 24°13' W 046°18'0 0.0
2017-Oct-31 22:27S 24°13' W 046°18'0 0.0
2017-Oct-31 21:57S 24°13' W 046°18'0 0.0
2017-Oct-31 21:21S 24°13' W 046°18'0 0.0
2017-Oct-31 20:57S 24°13' W 046°18'0 0.0
2017-Oct-31 20:24S 24°13' W 046°18'0 0.0
2017-Oct-31 19:57S 24°13' W 046°18'0 0.0
2017-Oct-31 19:30S 24°13' W 046°18'0 0.0
2017-Oct-31 18:57S 24°13' W 046°18'0 0.0
2017-Oct-31 18:30S 24°13' W 046°18'0 0.0
2017-Oct-31 17:51S 24°13' W 046°18'0 0.0
2017-Oct-31 17:30S 24°13' W 046°18'0 0.0
2017-Oct-31 16:57S 24°13' W 046°18'0 0.0
2017-Oct-31 16:27S 24°13' W 046°18'0 0.0
2017-Oct-31 15:57S 24°13' W 046°18'0 0.0
2017-Oct-31 15:21S 24°13' W 046°18'0 0.0
2017-Oct-31 14:57S 24°13' W 046°18'0 0.0
2017-Oct-31 14:30S 24°13' W 046°18'0 0.0
2017-Oct-31 13:57S 24°13' W 046°18'0 0.0
2017-Oct-31 13:30S 24°13' W 046°18'0 0.0
2017-Oct-31 12:57S 24°13' W 046°18'0 0.0
2017-Oct-31 12:27S 24°13' W 046°18'0 0.0
2017-Oct-31 11:57S 24°13' W 046°18'0 0.1
2017-Oct-31 11:27S 24°13' W 046°18'0 0.0
2017-Oct-31 10:57S 24°13' W 046°18'0 0.0
2017-Oct-31 10:27S 24°13' W 046°18'0 0.0
2017-Oct-31 10:00S 24°13' W 046°18'0 0.0
2017-Oct-31 09:21S 24°13' W 046°18'0 0.2
2017-Oct-31 08:57S 24°13' W 046°18'0 0.2
2017-Oct-31 08:30S 24°13' W 046°18'0 0.1
2017-Oct-31 08:00S 24°13' W 046°19'0 0.0
2017-Oct-31 07:15S 24°13' W 046°19'0 0.0
2017-Oct-31 06:57S 24°13' W 046°19'0 0.0
2017-Oct-31 06:27S 24°13' W 046°19'0 0.0
2017-Oct-31 05:57S 24°13' W 046°19'0 0.1
2017-Oct-31 05:27S 24°13' W 046°19'0 0.0
2017-Oct-31 04:57S 24°13' W 046°19'0 0.0
2017-Oct-31 04:24S 24°13' W 046°19'0 0.0
2017-Oct-31 03:57S 24°13' W 046°19'0 0.0
2017-Oct-31 03:27S 24°13' W 046°19'0 0.0
2017-Oct-31 02:54S 24°13' W 046°19'0 0.0
2017-Oct-31 02:27S 24°13' W 046°19'0 0.0
2017-Oct-31 01:57S 24°13' W 046°19'0 0.0
2017-Oct-31 01:27S 24°13' W 046°19'0 0.0
2017-Oct-31 00:45S 24°13' W 046°19'0 0.0
2017-Oct-31 00:15S 24°13' W 046°19'0 0.0
2017-Oct-30 23:51S 24°13' W 046°19'0 0.0
2017-Oct-30 23:27S 24°13' W 046°19'0 0.0
2017-Oct-30 22:57S 24°13' W 046°19'0 0.0
2017-Oct-30 22:27S 24°13' W 046°19'0 0.0
2017-Oct-30 21:48S 24°13' W 046°19'0 0.0
2017-Oct-30 21:06S 24°13' W 046°19'0 0.1
2017-Oct-30 21:00S 24°13' W 046°19'0 0.0
2017-Oct-30 20:24S 24°13' W 046°19'0 0.0
2017-Oct-30 19:57S 24°13' W 046°19'0 0.0
2017-Oct-30 19:27S 24°13' W 046°19'0 0.1
2017-Oct-30 18:57S 24°13' W 046°19'0 0.0
2017-Oct-30 18:27S 24°13' W 046°19'0 0.1
2017-Oct-30 17:57S 24°13' W 046°19'0 0.0
2017-Oct-30 17:15S 24°13' W 046°19'0 0.2
2017-Oct-30 16:57S 24°13' W 046°19'0 0.0
2017-Oct-30 16:27S 24°13' W 046°19'0 0.1
2017-Oct-30 15:57S 24°13' W 046°19'0 0.0
2017-Oct-30 15:27S 24°13' W 046°19'0 0.0
2017-Oct-30 14:57S 24°13' W 046°19'0 0.0
2017-Oct-30 14:27S 24°13' W 046°19'0 0.0
2017-Oct-30 13:21S 24°13' W 046°19'0 0.1
2017-Oct-30 12:57S 24°13' W 046°19'0 0.0
2017-Oct-30 12:27S 24°13' W 046°19'0 0.0
2017-Oct-30 11:57S 24°13' W 046°19'0 0.0
2017-Oct-30 11:27S 24°13' W 046°19'0 0.0
2017-Oct-30 10:57S 24°13' W 046°19'0 0.0
2017-Oct-30 10:27S 24°13' W 046°19'0 0.0
2017-Oct-30 09:48S 24°13' W 046°19'0 0.0
2017-Oct-30 09:15S 24°13' W 046°19'0 0.0
2017-Oct-30 08:45S 24°13' W 046°19'0 0.1
2017-Oct-30 08:27S 24°13' W 046°19'0 0.1
2017-Oct-30 07:51S 24°13' W 046°19'0 0.0
2017-Oct-30 07:18S 24°13' W 046°19'0 0.1
2017-Oct-30 07:00S 24°13' W 046°19'0 0.1
2017-Oct-30 06:30S 24°13' W 046°19'0 0.0
2017-Oct-30 04:57S 24°13' W 046°19'0 0.0
2017-Oct-30 04:30S 24°13' W 046°19'0 0.0
2017-Oct-30 03:57S 24°13' W 046°19'0 0.0
2017-Oct-30 03:21S 24°13' W 046°19'0 0.0
2017-Oct-30 03:00S 24°13' W 046°19'0 0.1
2017-Oct-30 02:27S 24°13' W 046°19'0 0.0
2017-Oct-30 01:57S 24°13' W 046°19'0 0.0
2017-Oct-30 01:24S 24°13' W 046°19'0 0.0
2017-Oct-30 00:57S 24°13' W 046°19'0 0.0
2017-Oct-30 00:21S 24°13' W 046°19'0 0.0
2017-Oct-29 23:51S 24°13' W 046°19'0 0.0
2017-Oct-29 23:21S 24°13' W 046°19'0 0.1
2017-Oct-29 22:57S 24°13' W 046°19'0 0.1
2017-Oct-29 22:30S 24°13' W 046°18'0 0.1
2017-Oct-29 21:57S 24°13' W 046°18'0 0.0
2017-Oct-29 21:27S 24°13' W 046°18'0 0.0
2017-Oct-29 20:57S 24°13' W 046°18'0 0.0
2017-Oct-29 20:27S 24°13' W 046°18'1 2.6
2017-Oct-29 20:00S 24°13' W 046°20'5 9.3
2017-Oct-29 19:30S 24°17' W 046°23'714.9
2017-Oct-29 19:00S 24°24' W 046°19'815.2
2017-Oct-29 18:30S 24°29' W 046°13'613.0
2017-Oct-29 18:00S 24°31' W 046°06'714.5
2017-Oct-29 17:30S 24°29' W 045°58'814.6
2017-Oct-29 16:59S 24°28' W 045°50'714.6
2017-Oct-29 16:30S 24°27' W 045°42'714.3
2017-Oct-29 16:00S 24°25' W 045°35'  

Dump ship's entire track history